Terminal Aerodrome Forecast
Issued by NWS Bismarck, ND

Home | Current Version | Previous Version | Graphics & Text | Print | Product List | Glossary On
Versions: 1 2 3 4 5 6 7 8 9 10 11 12 13 14 15 16 17
000
FTUS43 KBIS 211127
TAFBIS
TAF
KBIS 211127Z 2112/2212 15010KT P6SM BKN120 WS020/19035KT
     FM211500 17014G22KT P6SM FEW120 SCT200
     FM212000 24011KT P6SM FEW110 FEW250
     FM212300 32010KT P6SM FEW120 FEW250
     FM221000 02011KT P6SM SCT140=

USA.gov is the U.S. government's official web portal to all federal, state and local government web resources and services.